sensor_id;sensor_type;location;lat;lon;timestamp;pressure;altitude;pressure_sealevel;temperature;humidity
9129;BME280;4599;50.906;6.786;2022-11-15T00:02:26;76298.81;;;-142.83;nan
9129;BME280;4599;50.906;6.786;2022-11-15T00:06:27;76284.28;;;-142.83;nan
9129;BME280;4599;50.906;6.786;2022-11-15T00:10:29;76226.13;;;-142.83;nan
9129;BME280;4599;50.906;6.786;2022-11-15T00:14:30;76234.44;;;-142.83;nan
9129;BME280;4599;50.906;6.786;2022-11-15T00:18:33;76211.59;;;-142.83;nan
9129;BME280;4599;50.906;6.786;2022-11-15T00:22:35;76211.59;;;-142.83;nan
9129;BME280;4599;50.906;6.786;2022-11-15T00:26:36;76217.84;;;-142.83;nan
9129;BME280;4599;50.906;6.786;2022-11-15T00:30:38;76195.00;;;-142.83;nan
9129;BME280;4599;50.906;6.786;2022-11-15T00:34:41;76199.16;;;-142.83;nan
9129;BME280;4599;50.906;6.786;2022-11-15T00:38:42;76197.06;;;-142.83;nan
9129;BME280;4599;50.906;6.786;2022-11-15T00:42:45;76190.84;;;-142.83;nan
9129;BME280;4599;50.906;6.786;2022-11-15T00:46:47;76211.59;;;-142.83;nan
9129;BME280;4599;50.906;6.786;2022-11-15T00:50:52;76201.22;;;-142.83;nan
9129;BME280;4599;50.906;6.786;2022-11-15T00:54:53;76165.94;;;-142.83;nan
9129;BME280;4599;50.906;6.786;2022-11-15T00:58:55;76165.94;;;-142.83;nan
9129;BME280;4599;50.906;6.786;2022-11-15T01:02:56;76163.84;;;-142.83;nan
9129;BME280;4599;50.906;6.786;2022-11-15T01:06:59;76153.47;;;-142.83;nan
9129;BME280;4599;50.906;6.786;2022-11-15T01:11:01;76128.56;;;-142.83;nan
9129;BME280;4599;50.906;6.786;2022-11-15T01:15:04;76114.03;;;-142.83;nan
9129;BME280;4599;50.906;6.786;2022-11-15T01:19:06;76124.41;;;-142.83;nan
9129;BME280;4599;50.906;6.786;2022-11-15T01:23:09;76120.25;;;-142.83;nan
9129;BME280;4599;50.906;6.786;2022-11-15T01:27:11;76109.88;;;-142.83;nan
9129;BME280;4599;50.906;6.786;2022-11-15T01:31:15;76105.72;;;-142.83;nan
9129;BME280;4599;50.906;6.786;2022-11-15T01:35:17;76116.09;;;-142.83;nan
9129;BME280;4599;50.906;6.786;2022-11-15T01:39:20;76103.66;;;-142.83;nan
9129;BME280;4599;50.906;6.786;2022-11-15T01:43:24;76070.44;;;-142.83;nan
9129;BME280;4599;50.906;6.786;2022-11-15T01:47:28;76064.19;;;-142.83;nan
9129;BME280;4599;50.906;6.786;2022-11-15T01:51:32;76070.44;;;-142.83;nan
9129;BME280;4599;50.906;6.786;2022-11-15T01:55:36;76082.88;;;-142.83;nan
9129;BME280;4599;50.906;6.786;2022-11-15T01:59:39;76045.50;;;-142.83;nan
9129;BME280;4599;50.906;6.786;2022-11-15T02:03:46;76035.13;;;-142.83;nan
9129;BME280;4599;50.906;6.786;2022-11-15T02:07:51;76024.75;;;-142.83;nan
9129;BME280;4599;50.906;6.786;2022-11-15T02:11:54;76016.44;;;-142.83;nan
9129;BME280;4599;50.906;6.786;2022-11-15T02:16:04;76012.28;;;-142.83;nan
9129;BME280;4599;50.906;6.786;2022-11-15T02:20:31;76012.28;;;-142.83;nan
9129;BME280;4599;50.906;6.786;2022-11-15T02:24:49;76010.22;;;-142.83;nan
9129;BME280;4599;50.906;6.786;2022-11-15T02:29:02;76043.44;;;-142.83;nan
9129;BME280;4599;50.906;6.786;2022-11-15T02:33:17;76024.75;;;-142.83;nan
9129;BME280;4599;50.906;6.786;2022-11-15T02:37:29;76012.28;;;-142.83;nan
9129;BME280;4599;50.906;6.786;2022-11-15T02:41:39;76020.59;;;-142.83;nan
9129;BME280;4599;50.906;6.786;2022-11-15T02:45:46;76010.22;;;-142.83;nan
9129;BME280;4599;50.906;6.786;2022-11-15T02:49:52;76006.06;;;-142.83;nan
9129;BME280;4599;50.906;6.786;2022-11-15T02:53:55;75997.75;;;-142.83;nan
9129;BME280;4599;50.906;6.786;2022-11-15T02:58:10;75999.84;;;-142.83;nan
9129;BME280;4599;50.906;6.786;2022-11-15T03:02:23;76004.00;;;-142.83;nan
9129;BME280;4599;50.906;6.786;2022-11-15T03:06:37;75989.47;;;-142.83;nan
9129;BME280;4599;50.906;6.786;2022-11-15T03:10:46;75991.53;;;-142.83;nan
9129;BME280;4599;50.906;6.786;2022-11-15T03:14:54;75983.22;;;-142.83;nan
9129;BME280;4599;50.906;6.786;2022-11-15T03:19:04;75977.00;;;-142.83;nan
9129;BME280;4599;50.906;6.786;2022-11-15T03:23:10;75966.63;;;-142.83;nan
9129;BME280;4599;50.906;6.786;2022-11-15T03:27:14;75960.41;;;-142.83;nan
9129;BME280;4599;50.906;6.786;2022-11-15T03:31:19;75964.53;;;-142.83;nan
9129;BME280;4599;50.906;6.786;2022-11-15T03:35:25;75956.25;;;-142.83;nan
9129;BME280;4599;50.906;6.786;2022-11-15T03:39:29;75954.16;;;-142.83;nan
9129;BME280;4599;50.906;6.786;2022-11-15T03:43:38;75943.78;;;-142.83;nan
9129;BME280;4599;50.906;6.786;2022-11-15T03:47:46;75937.56;;;-142.83;nan
9129;BME280;4599;50.906;6.786;2022-11-15T03:51:49;75931.34;;;-142.83;nan
9129;BME280;4599;50.906;6.786;2022-11-15T03:55:53;75935.47;;;-142.83;nan
9129;BME280;4599;50.906;6.786;2022-11-15T03:59:54;75918.88;;;-142.83;nan
9129;BME280;4599;50.906;6.786;2022-11-15T04:03:56;75904.34;;;-142.83;nan
9129;BME280;4599;50.906;6.786;2022-11-15T04:07:57;75916.81;;;-142.83;nan
9129;BME280;4599;50.906;6.786;2022-11-15T04:12:00;75916.81;;;-142.83;nan
9129;BME280;4599;50.906;6.786;2022-11-15T04:16:02;75931.34;;;-142.83;nan
9129;BME280;4599;50.906;6.786;2022-11-15T04:20:05;75920.94;;;-142.83;nan
9129;BME280;4599;50.906;6.786;2022-11-15T04:24:07;75927.19;;;-142.83;nan
9129;BME280;4599;50.906;6.786;2022-11-15T04:28:10;75920.94;;;-142.83;nan
9129;BME280;4599;50.906;6.786;2022-11-15T04:32:12;75914.72;;;-142.83;nan
9129;BME280;4599;50.906;6.786;2022-11-15T04:36:13;75927.19;;;-142.83;nan
9129;BME280;4599;50.906;6.786;2022-11-15T04:40:17;75920.94;;;-142.83;nan
9129;BME280;4599;50.906;6.786;2022-11-15T04:44:20;75920.94;;;-142.83;nan
9129;BME280;4599;50.906;6.786;2022-11-15T04:48:22;75912.66;;;-142.83;nan
9129;BME280;4599;50.906;6.786;2022-11-15T04:52:23;75912.66;;;-142.83;nan
9129;BME280;4599;50.906;6.786;2022-11-15T04:56:24;75916.81;;;-142.83;nan
9129;BME280;4599;50.906;6.786;2022-11-15T05:00:28;75929.25;;;-142.83;nan
9129;BME280;4599;50.906;6.786;2022-11-15T05:04:30;75941.72;;;-142.83;nan
9129;BME280;4599;50.906;6.786;2022-11-15T05:08:31;75937.56;;;-142.83;nan
9129;BME280;4599;50.906;6.786;2022-11-15T05:12:33;75937.56;;;-142.83;nan
9129;BME280;4599;50.906;6.786;2022-11-15T05:16:36;75952.09;;;-142.83;nan
9129;BME280;4599;50.906;6.786;2022-11-15T05:20:38;75962.47;;;-142.83;nan
9129;BME280;4599;50.906;6.786;2022-11-15T05:24:39;75970.78;;;-142.83;nan
9129;BME280;4599;50.906;6.786;2022-11-15T05:28:41;75991.53;;;-142.83;nan
9129;BME280;4599;50.906;6.786;2022-11-15T05:32:44;76008.16;;;-142.83;nan
9129;BME280;4599;50.906;6.786;2022-11-15T05:36:45;76026.84;;;-142.83;nan
9129;BME280;4599;50.906;6.786;2022-11-15T05:40:47;76022.69;;;-142.83;nan
9129;BME280;4599;50.906;6.786;2022-11-15T05:44:49;76028.91;;;-142.83;nan
9129;BME280;4599;50.906;6.786;2022-11-15T05:48:53;76006.06;;;-142.83;nan
9129;BME280;4599;50.906;6.786;2022-11-15T05:52:56;76020.59;;;-142.83;nan
9129;BME280;4599;50.906;6.786;2022-11-15T05:57:04;76026.84;;;-142.83;nan
9129;BME280;4599;50.906;6.786;2022-11-15T06:01:06;76026.84;;;-142.83;nan
9129;BME280;4599;50.906;6.786;2022-11-15T06:05:09;76039.28;;;-142.83;nan
9129;BME280;4599;50.906;6.786;2022-11-15T06:09:10;76062.13;;;-142.83;nan
9129;BME280;4599;50.906;6.786;2022-11-15T06:13:12;76053.81;;;-142.83;nan
9129;BME280;4599;50.906;6.786;2022-11-15T06:17:13;76045.50;;;-142.83;nan
9129;BME280;4599;50.906;6.786;2022-11-15T06:21:16;76062.13;;;-142.83;nan
9129;BME280;4599;50.906;6.786;2022-11-15T06:25:18;76070.44;;;-142.83;nan
9129;BME280;4599;50.906;6.786;2022-11-15T06:29:20;76080.81;;;-142.83;nan
9129;BME280;4599;50.906;6.786;2022-11-15T06:33:21;76087.03;;;-142.83;nan
9129;BME280;4599;50.906;6.786;2022-11-15T06:37:24;76091.19;;;-142.83;nan
9129;BME280;4599;50.906;6.786;2022-11-15T06:41:26;76072.50;;;-142.83;nan
9129;BME280;4599;50.906;6.786;2022-11-15T06:45:27;76078.72;;;-142.83;nan
9129;BME280;4599;50.906;6.786;2022-11-15T06:49:29;76087.03;;;-142.83;nan
9129;BME280;4599;50.906;6.786;2022-11-15T06:53:32;76087.03;;;-142.83;nan
9129;BME280;4599;50.906;6.786;2022-11-15T06:57:35;76099.50;;;-142.83;nan
9129;BME280;4599;50.906;6.786;2022-11-15T07:01:36;76109.88;;;-142.83;nan
9129;BME280;4599;50.906;6.786;2022-11-15T07:05:38;76130.63;;;-142.83;nan
9129;BME280;4599;50.906;6.786;2022-11-15T07:09:41;76138.94;;;-142.83;nan
9129;BME280;4599;50.906;6.786;2022-11-15T07:13:42;76124.41;;;-142.83;nan
9129;BME280;4599;50.906;6.786;2022-11-15T07:17:44;76170.06;;;-142.83;nan
9129;BME280;4599;50.906;6.786;2022-11-15T07:21:45;76161.78;;;-142.83;nan
9129;BME280;4599;50.906;6.786;2022-11-15T07:25:48;76151.41;;;-142.83;nan
9129;BME280;4599;50.906;6.786;2022-11-15T07:29:50;76163.84;;;-142.83;nan
9129;BME280;4599;50.906;6.786;2022-11-15T07:33:51;76209.53;;;-142.83;nan
9129;BME280;4599;50.906;6.786;2022-11-15T07:37:54;76236.50;;;-142.83;nan
9129;BME280;4599;50.906;6.786;2022-11-15T07:41:57;76209.53;;;-142.83;nan
9129;BME280;4599;50.906;6.786;2022-11-15T07:45:59;76234.44;;;-142.83;nan
9129;BME280;4599;50.906;6.786;2022-11-15T07:50:01;76192.91;;;-142.83;nan
9129;BME280;4599;50.906;6.786;2022-11-15T07:54:03;76203.28;;;-142.83;nan
9129;BME280;4599;50.906;6.786;2022-11-15T07:58:08;76203.28;;;-142.83;nan
9129;BME280;4599;50.906;6.786;2022-11-15T08:02:10;76219.91;;;-142.83;nan
9129;BME280;4599;50.906;6.786;2022-11-15T08:06:12;76186.69;;;-142.83;nan
9129;BME280;4599;50.906;6.786;2022-11-15T08:10:14;76180.47;;;-142.83;nan
9129;BME280;4599;50.906;6.786;2022-11-15T08:14:17;76188.75;;;-142.83;nan
9129;BME280;4599;50.906;6.786;2022-11-15T08:18:19;76199.16;;;-142.83;nan
9129;BME280;4599;50.906;6.786;2022-11-15T08:22:20;76186.69;;;-142.83;nan
9129;BME280;4599;50.906;6.786;2022-11-15T08:26:22;76174.22;;;-142.83;nan
9129;BME280;4599;50.906;6.786;2022-11-15T08:30:25;76151.41;;;-142.83;nan
9129;BME280;4599;50.906;6.786;2022-11-15T08:34:27;76132.72;;;-142.83;nan
9129;BME280;4599;50.906;6.786;2022-11-15T08:38:28;76107.78;;;-142.83;nan
9129;BME280;4599;50.906;6.786;2022-11-15T08:42:30;76091.19;;;-142.83;nan
9129;BME280;4599;50.906;6.786;2022-11-15T08:46:33;76078.72;;;-142.83;nan
9129;BME280;4599;50.906;6.786;2022-11-15T08:50:34;76053.81;;;-142.83;nan
9129;BME280;4599;50.906;6.786;2022-11-15T08:54:36;76043.44;;;-142.83;nan
9129;BME280;4599;50.906;6.786;2022-11-15T08:58:37;76037.22;;;-142.83;nan
9129;BME280;4599;50.906;6.786;2022-11-15T09:02:40;76030.97;;;-142.83;nan
9129;BME280;4599;50.906;6.786;2022-11-15T09:06:42;76024.75;;;-142.83;nan
9129;BME280;4599;50.906;6.786;2022-11-15T09:10:43;76020.59;;;-142.83;nan
9129;BME280;4599;50.906;6.786;2022-11-15T09:14:45;75989.47;;;-142.83;nan
9129;BME280;4599;50.906;6.786;2022-11-15T09:18:48;76008.16;;;-142.83;nan
9129;BME280;4599;50.906;6.786;2022-11-15T09:22:50;75995.69;;;-142.83;nan
9129;BME280;4599;50.906;6.786;2022-11-15T09:26:51;76004.00;;;-142.83;nan
9129;BME280;4599;50.906;6.786;2022-11-15T09:30:56;75974.94;;;-142.83;nan
9129;BME280;4599;50.906;6.786;2022-11-15T09:34:59;75962.47;;;-142.83;nan
9129;BME280;4599;50.906;6.786;2022-11-15T09:39:00;75945.88;;;-142.83;nan
9129;BME280;4599;50.906;6.786;2022-11-15T09:43:23;75945.88;;;-142.83;nan
9129;BME280;4599;50.906;6.786;2022-11-15T09:47:47;75931.34;;;-142.83;nan
9129;BME280;4599;50.906;6.786;2022-11-15T09:51:53;75904.34;;;-142.83;nan
9129;BME280;4599;50.906;6.786;2022-11-15T09:55:59;75875.28;;;-142.83;nan
9129;BME280;4599;50.906;6.786;2022-11-15T10:00:20;75875.28;;;-142.83;nan
9129;BME280;4599;50.906;6.786;2022-11-15T10:04:43;75862.81;;;-142.83;nan
9129;BME280;4599;50.906;6.786;2022-11-15T10:08:56;75842.06;;;-142.83;nan
9129;BME280;4599;50.906;6.786;2022-11-15T10:13:01;75792.25;;;-142.83;nan
9129;BME280;4599;50.906;6.786;2022-11-15T10:17:32;75719.59;;;-142.83;nan
9129;BME280;4599;50.906;6.786;2022-11-15T10:21:50;75613.72;;;-142.83;nan
9129;BME280;4599;50.906;6.786;2022-11-15T10:25:59;75605.41;;;-142.83;nan
9129;BME280;4599;50.906;6.786;2022-11-15T10:30:11;75559.75;;;-142.83;nan
9129;BME280;4599;50.906;6.786;2022-11-15T10:34:15;75512.00;;;-142.83;nan
9129;BME280;4599;50.906;6.786;2022-11-15T10:38:17;75509.94;;;-142.83;nan
9129;BME280;4599;50.906;6.786;2022-11-15T10:42:26;75503.69;;;-142.83;nan
9129;BME280;4599;50.906;6.786;2022-11-15T10:46:27;75505.78;;;-142.83;nan
9129;BME280;4599;50.906;6.786;2022-11-15T10:50:47;75468.41;;;-142.83;nan
9129;BME280;4599;50.906;6.786;2022-11-15T10:54:53;75455.94;;;-142.83;nan
9129;BME280;4599;50.906;6.786;2022-11-15T10:58:57;75431.03;;;-142.83;nan
9129;BME280;4599;50.906;6.786;2022-11-15T11:03:00;75439.34;;;-142.83;nan
9129;BME280;4599;50.906;6.786;2022-11-15T11:07:02;75381.22;;;-142.83;nan
9129;BME280;4599;50.906;6.786;2022-11-15T11:11:05;75428.97;;;-142.83;nan
9129;BME280;4599;50.906;6.786;2022-11-15T11:15:12;75410.28;;;-142.83;nan
9129;BME280;4599;50.906;6.786;2022-11-15T11:19:37;75366.69;;;-142.83;nan
9129;BME280;4599;50.906;6.786;2022-11-15T11:23:46;75460.09;;;-142.83;nan
9129;BME280;4599;50.906;6.786;2022-11-15T11:27:59;75414.44;;;-142.83;nan
9129;BME280;4599;50.906;6.786;2022-11-15T11:32:19;75366.69;;;-142.83;nan
9129;BME280;4599;50.906;6.786;2022-11-15T11:36:26;75393.69;;;-142.83;nan
9129;BME280;4599;50.906;6.786;2022-11-15T11:40:30;75358.41;;;-142.83;nan
9129;BME280;4599;50.906;6.786;2022-11-15T11:44:40;75424.81;;;-142.83;nan
9129;BME280;4599;50.906;6.786;2022-11-15T11:48:48;75420.66;;;-142.83;nan
9129;BME280;4599;50.906;6.786;2022-11-15T11:52:57;75439.34;;;-142.83;nan
9129;BME280;4599;50.906;6.786;2022-11-15T11:57:06;75449.72;;;-142.83;nan
9129;BME280;4599;50.906;6.786;2022-11-15T12:01:16;75464.25;;;-142.83;nan
9129;BME280;4599;50.906;6.786;2022-11-15T12:05:26;75460.09;;;-142.83;nan
9129;BME280;4599;50.906;6.786;2022-11-15T12:09:32;75426.91;;;-142.83;nan
9129;BME280;4599;50.906;6.786;2022-11-15T12:13:36;75441.44;;;-142.83;nan
9129;BME280;4599;50.906;6.786;2022-11-15T12:17:39;75458.03;;;-142.83;nan
9129;BME280;4599;50.906;6.786;2022-11-15T12:21:46;75447.66;;;-142.83;nan
9129;BME280;4599;50.906;6.786;2022-11-15T12:25:52;75462.19;;;-142.83;nan
9129;BME280;4599;50.906;6.786;2022-11-15T12:29:58;75426.91;;;-142.83;nan
9129;BME280;4599;50.906;6.786;2022-11-15T12:34:04;75449.72;;;-142.83;nan
9129;BME280;4599;50.906;6.786;2022-11-15T12:38:54;75441.44;;;-142.83;nan
9129;BME280;4599;50.906;6.786;2022-11-15T12:47:27;75451.81;;;-142.83;nan
9129;BME280;4599;50.906;6.786;2022-11-15T12:56:23;75466.34;;;-142.83;nan
9129;BME280;4599;50.906;6.786;2022-11-15T13:00:43;75439.34;;;-142.83;nan
9129;BME280;4599;50.906;6.786;2022-11-15T13:04:45;75435.19;;;-142.83;nan
9129;BME280;4599;50.906;6.786;2022-11-15T13:29:34;75428.97;;;-142.83;nan
9129;BME280;4599;50.906;6.786;2022-11-15T13:33:37;75439.34;;;-142.83;nan
9129;BME280;4599;50.906;6.786;2022-11-15T13:37:40;75439.34;;;-142.83;nan
9129;BME280;4599;50.906;6.786;2022-11-15T13:41:47;75441.44;;;-142.83;nan
9129;BME280;4599;50.906;6.786;2022-11-15T13:46:06;75447.66;;;-142.83;nan
9129;BME280;4599;50.906;6.786;2022-11-15T13:50:10;75439.34;;;-142.83;nan
9129;BME280;4599;50.906;6.786;2022-11-15T13:54:25;75441.44;;;-142.83;nan
9129;BME280;4599;50.906;6.786;2022-11-15T13:58:29;75439.34;;;-142.83;nan
9129;BME280;4599;50.906;6.786;2022-11-15T14:02:34;75431.03;;;-142.83;nan
9129;BME280;4599;50.906;6.786;2022-11-15T14:06:44;75422.75;;;-142.83;nan
9129;BME280;4599;50.906;6.786;2022-11-15T14:10:46;75404.06;;;-142.83;nan
9129;BME280;4599;50.906;6.786;2022-11-15T14:14:48;75401.97;;;-142.83;nan
9129;BME280;4599;50.906;6.786;2022-11-15T14:18:52;75399.91;;;-142.83;nan
9129;BME280;4599;50.906;6.786;2022-11-15T14:22:55;75397.84;;;-142.83;nan
9129;BME280;4599;50.906;6.786;2022-11-15T14:27:16;75420.66;;;-142.83;nan
9129;BME280;4599;50.906;6.786;2022-11-15T14:31:19;75422.75;;;-142.83;nan
9129;BME280;4599;50.906;6.786;2022-11-15T14:35:23;75426.91;;;-142.83;nan
9129;BME280;4599;50.906;6.786;2022-11-15T14:39:25;75410.28;;;-142.83;nan
9129;BME280;4599;50.906;6.786;2022-11-15T14:43:26;75393.69;;;-142.83;nan
9129;BME280;4599;50.906;6.786;2022-11-15T14:47:28;75393.69;;;-142.83;nan
9129;BME280;4599;50.906;6.786;2022-11-15T14:51:31;75385.38;;;-142.83;nan
9129;BME280;4599;50.906;6.786;2022-11-15T14:55:34;75389.53;;;-142.83;nan
9129;BME280;4599;50.906;6.786;2022-11-15T14:59:36;75393.69;;;-142.83;nan
9129;BME280;4599;50.906;6.786;2022-11-15T15:03:37;75399.91;;;-142.83;nan
9129;BME280;4599;50.906;6.786;2022-11-15T15:07:41;75389.53;;;-142.83;nan
9129;BME280;4599;50.906;6.786;2022-11-15T15:11:43;75393.69;;;-142.83;nan
9129;BME280;4599;50.906;6.786;2022-11-15T15:15:45;75389.53;;;-142.83;nan
9129;BME280;4599;50.906;6.786;2022-11-15T15:19:47;75397.84;;;-142.83;nan
9129;BME280;4599;50.906;6.786;2022-11-15T15:23:51;75395.75;;;-142.83;nan
9129;BME280;4599;50.906;6.786;2022-11-15T15:27:53;75397.84;;;-142.83;nan
9129;BME280;4599;50.906;6.786;2022-11-15T15:31:55;75389.53;;;-142.83;nan
9129;BME280;4599;50.906;6.786;2022-11-15T15:35:57;75395.75;;;-142.83;nan
9129;BME280;4599;50.906;6.786;2022-11-15T15:40:00;75385.38;;;-142.83;nan
9129;BME280;4599;50.906;6.786;2022-11-15T15:44:02;75385.38;;;-142.83;nan
9129;BME280;4599;50.906;6.786;2022-11-15T15:48:04;75397.84;;;-142.83;nan
9129;BME280;4599;50.906;6.786;2022-11-15T15:52:06;75377.06;;;-142.83;nan
9129;BME280;4599;50.906;6.786;2022-11-15T15:56:10;75370.84;;;-142.83;nan
9129;BME280;4599;50.906;6.786;2022-11-15T16:00:12;75377.06;;;-142.83;nan
9129;BME280;4599;50.906;6.786;2022-11-15T16:04:14;75364.63;;;-142.83;nan
9129;BME280;4599;50.906;6.786;2022-11-15T16:08:18;75364.63;;;-142.83;nan
9129;BME280;4599;50.906;6.786;2022-11-15T16:12:21;75370.84;;;-142.83;nan
9129;BME280;4599;50.906;6.786;2022-11-15T16:16:22;75368.78;;;-142.83;nan
9129;BME280;4599;50.906;6.786;2022-11-15T16:20:31;75366.69;;;-142.83;nan
9129;BME280;4599;50.906;6.786;2022-11-15T16:24:35;75362.53;;;-142.83;nan
9129;BME280;4599;50.906;6.786;2022-11-15T16:28:38;75368.78;;;-142.83;nan
9129;BME280;4599;50.906;6.786;2022-11-15T16:32:39;75370.84;;;-142.83;nan
9129;BME280;4599;50.906;6.786;2022-11-15T16:36:41;75372.94;;;-142.83;nan
9129;BME280;4599;50.906;6.786;2022-11-15T16:40:43;75364.63;;;-142.83;nan
9129;BME280;4599;50.906;6.786;2022-11-15T16:44:46;75372.94;;;-142.83;nan
9129;BME280;4599;50.906;6.786;2022-11-15T16:48:48;75375.00;;;-142.83;nan
9129;BME280;4599;50.906;6.786;2022-11-15T16:52:51;75389.53;;;-142.83;nan
9129;BME280;4599;50.906;6.786;2022-11-15T16:56:53;75362.53;;;-142.83;nan
9129;BME280;4599;50.906;6.786;2022-11-15T17:00:56;75381.22;;;-142.83;nan
9129;BME280;4599;50.906;6.786;2022-11-15T17:04:58;75377.06;;;-142.83;nan
9129;BME280;4599;50.906;6.786;2022-11-15T17:08:59;75395.75;;;-142.83;nan
9129;BME280;4599;50.906;6.786;2022-11-15T17:13:01;75372.94;;;-142.83;nan
9129;BME280;4599;50.906;6.786;2022-11-15T17:17:04;75385.38;;;-142.83;nan
9129;BME280;4599;50.906;6.786;2022-11-15T17:21:06;75389.53;;;-142.83;nan
9129;BME280;4599;50.906;6.786;2022-11-15T17:25:09;75385.38;;;-142.83;nan
9129;BME280;4599;50.906;6.786;2022-11-15T17:29:11;75424.81;;;-142.83;nan
9129;BME280;4599;50.906;6.786;2022-11-15T17:33:14;75412.38;;;-142.83;nan
9129;BME280;4599;50.906;6.786;2022-11-15T17:37:16;75416.50;;;-142.83;nan
9129;BME280;4599;50.906;6.786;2022-11-15T17:41:18;75435.19;;;-142.83;nan
9129;BME280;4599;50.906;6.786;2022-11-15T18:21:27;75472.56;;;-142.83;nan
9129;BME280;4599;50.906;6.786;2022-11-15T18:25:29;75482.94;;;-142.83;nan
9129;BME280;4599;50.906;6.786;2022-11-15T18:29:30;75485.00;;;-142.83;nan
9129;BME280;4599;50.906;6.786;2022-11-15T18:33:33;75485.00;;;-142.83;nan
9129;BME280;4599;50.906;6.786;2022-11-15T18:37:36;75493.31;;;-142.83;nan
9129;BME280;4599;50.906;6.786;2022-11-15T18:41:38;75501.63;;;-142.83;nan
9129;BME280;4599;50.906;6.786;2022-11-15T18:45:39;75480.88;;;-142.83;nan
9129;BME280;4599;50.906;6.786;2022-11-15T18:49:41;75501.63;;;-142.83;nan
9129;BME280;4599;50.906;6.786;2022-11-15T18:53:44;75507.84;;;-142.83;nan
9129;BME280;4599;50.906;6.786;2022-11-15T18:57:45;75501.63;;;-142.83;nan
9129;BME280;4599;50.906;6.786;2022-11-15T19:01:47;75501.63;;;-142.83;nan
9129;BME280;4599;50.906;6.786;2022-11-15T19:06:04;75499.53;;;-142.83;nan
9129;BME280;4599;50.906;6.786;2022-11-15T19:10:09;75495.41;;;-142.83;nan
9129;BME280;4599;50.906;6.786;2022-11-15T19:14:13;75485.00;;;-142.83;nan
9129;BME280;4599;50.906;6.786;2022-11-15T19:18:15;75497.47;;;-142.83;nan
9129;BME280;4599;50.906;6.786;2022-11-15T19:22:17;75497.47;;;-142.83;nan
9129;BME280;4599;50.906;6.786;2022-11-15T19:26:21;75509.94;;;-142.83;nan
9129;BME280;4599;50.906;6.786;2022-11-15T19:30:42;75499.53;;;-142.83;nan
9129;BME280;4599;50.906;6.786;2022-11-15T19:34:52;75505.78;;;-142.83;nan
9129;BME280;4599;50.906;6.786;2022-11-15T19:38:54;75501.63;;;-142.83;nan
9129;BME280;4599;50.906;6.786;2022-11-15T19:42:57;75497.47;;;-142.83;nan
9129;BME280;4599;50.906;6.786;2022-11-15T19:46:59;75497.47;;;-142.83;nan
9129;BME280;4599;50.906;6.786;2022-11-15T19:51:01;75489.16;;;-142.83;nan
9129;BME280;4599;50.906;6.786;2022-11-15T19:55:04;75489.16;;;-142.83;nan
9129;BME280;4599;50.906;6.786;2022-11-15T19:59:08;75487.09;;;-142.83;nan
9129;BME280;4599;50.906;6.786;2022-11-15T20:03:09;75487.09;;;-142.83;nan
9129;BME280;4599;50.906;6.786;2022-11-15T20:07:11;75493.31;;;-142.83;nan
9129;BME280;4599;50.906;6.786;2022-11-15T20:11:14;75464.25;;;-142.83;nan
9129;BME280;4599;50.906;6.786;2022-11-15T20:15:17;75478.78;;;-142.83;nan
9129;BME280;4599;50.906;6.786;2022-11-15T20:19:19;75491.25;;;-142.83;nan
9129;BME280;4599;50.906;6.786;2022-11-15T20:23:21;75480.88;;;-142.83;nan
9129;BME280;4599;50.906;6.786;2022-11-15T20:27:22;75482.94;;;-142.83;nan
9129;BME280;4599;50.906;6.786;2022-11-15T20:31:25;75493.31;;;-142.83;nan
9129;BME280;4599;50.906;6.786;2022-11-15T20:35:27;75489.16;;;-142.83;nan
9129;BME280;4599;50.906;6.786;2022-11-15T20:39:28;75491.25;;;-142.83;nan
9129;BME280;4599;50.906;6.786;2022-11-15T20:43:30;75489.16;;;-142.83;nan
9129;BME280;4599;50.906;6.786;2022-11-15T20:47:33;75489.16;;;-142.83;nan
9129;BME280;4599;50.906;6.786;2022-11-15T20:51:34;75491.25;;;-142.83;nan
9129;BME280;4599;50.906;6.786;2022-11-15T20:55:38;75489.16;;;-142.83;nan
9129;BME280;4599;50.906;6.786;2022-11-15T20:59:39;75485.00;;;-142.83;nan
9129;BME280;4599;50.906;6.786;2022-11-15T21:03:42;75482.94;;;-142.83;nan
9129;BME280;4599;50.906;6.786;2022-11-15T21:07:44;75499.53;;;-142.83;nan
9129;BME280;4599;50.906;6.786;2022-11-15T21:11:45;75495.41;;;-142.83;nan
9129;BME280;4599;50.906;6.786;2022-11-15T21:15:47;75487.09;;;-142.83;nan
9129;BME280;4599;50.906;6.786;2022-11-15T21:19:50;75480.88;;;-142.83;nan
9129;BME280;4599;50.906;6.786;2022-11-15T21:23:52;75480.88;;;-142.83;nan
9129;BME280;4599;50.906;6.786;2022-11-15T21:27:53;75482.94;;;-142.83;nan
9129;BME280;4599;50.906;6.786;2022-11-15T21:31:55;75487.09;;;-142.83;nan
9129;BME280;4599;50.906;6.786;2022-11-15T21:35:58;75487.09;;;-142.83;nan
9129;BME280;4599;50.906;6.786;2022-11-15T21:40:00;75480.88;;;-142.83;nan
9129;BME280;4599;50.906;6.786;2022-11-15T21:44:02;75470.47;;;-142.83;nan
9129;BME280;4599;50.906;6.786;2022-11-15T21:48:05;75468.41;;;-142.83;nan
9129;BME280;4599;50.906;6.786;2022-11-15T21:52:08;75476.72;;;-142.83;nan
9129;BME280;4599;50.906;6.786;2022-11-15T21:56:09;75472.56;;;-142.83;nan
9129;BME280;4599;50.906;6.786;2022-11-15T22:00:12;75468.41;;;-142.83;nan
9129;BME280;4599;50.906;6.786;2022-11-15T22:04:14;75464.25;;;-142.83;nan
9129;BME280;4599;50.906;6.786;2022-11-15T22:08:17;75464.25;;;-142.83;nan
9129;BME280;4599;50.906;6.786;2022-11-15T22:12:19;75462.19;;;-142.83;nan
9129;BME280;4599;50.906;6.786;2022-11-15T22:16:20;75453.88;;;-142.83;nan
9129;BME280;4599;50.906;6.786;2022-11-15T22:20:22;75451.81;;;-142.83;nan
9129;BME280;4599;50.906;6.786;2022-11-15T22:24:45;75447.66;;;-142.83;nan
9129;BME280;4599;50.906;6.786;2022-11-15T22:28:46;75447.66;;;-142.83;nan
9129;BME280;4599;50.906;6.786;2022-11-15T22:32:48;75445.56;;;-142.83;nan
9129;BME280;4599;50.906;6.786;2022-11-15T22:36:50;75445.56;;;-142.83;nan
9129;BME280;4599;50.906;6.786;2022-11-15T22:41:13;75445.56;;;-142.83;nan
9129;BME280;4599;50.906;6.786;2022-11-15T22:45:15;75441.44;;;-142.83;nan
9129;BME280;4599;50.906;6.786;2022-11-15T22:49:16;75443.50;;;-142.83;nan
9129;BME280;4599;50.906;6.786;2022-11-15T22:53:19;75439.34;;;-142.83;nan
9129;BME280;4599;50.906;6.786;2022-11-15T22:57:22;75435.19;;;-142.83;nan
9129;BME280;4599;50.906;6.786;2022-11-15T23:01:23;75435.19;;;-142.83;nan
9129;BME280;4599;50.906;6.786;2022-11-15T23:05:25;75431.03;;;-142.83;nan
9129;BME280;4599;50.906;6.786;2022-11-15T23:09:27;75420.66;;;-142.83;nan
9129;BME280;4599;50.906;6.786;2022-11-15T23:13:31;75418.59;;;-142.83;nan
9129;BME280;4599;50.906;6.786;2022-11-15T23:17:33;75418.59;;;-142.83;nan